createdAt,value
2018-12-07T00:00:11.227Z,10.0555555556
2018-12-07T00:00:23.615Z,10
2018-12-07T00:00:36.013Z,10
2018-12-07T00:00:48.430Z,10.0555555556
2018-12-07T00:01:00.814Z,10
2018-12-07T00:01:13.204Z,10.0555555556
2018-12-07T00:01:25.587Z,10
2018-12-07T00:01:37.983Z,10.0555555556
2018-12-07T00:01:50.605Z,10.0555555556
2018-12-07T00:02:02.967Z,10.0555555556
2018-12-07T00:02:15.349Z,10
2018-12-07T00:02:27.716Z,10.0555555556
2018-12-07T00:02:40.131Z,10.0555555556
2018-12-07T00:02:52.509Z,10.0555555556
2018-12-07T00:03:04.878Z,10.0555555556
2018-12-07T00:03:17.306Z,10.0555555556
2018-12-07T00:03:29.685Z,10.0555555556
2018-12-07T00:03:42.085Z,10.0555555556
2018-12-07T00:03:54.463Z,10.0555555556
2018-12-07T00:04:06.910Z,10.0555555556
2018-12-07T00:04:19.367Z,10.0555555556
2018-12-07T00:04:31.753Z,10.0555555556
2018-12-07T00:04:44.133Z,10.0555555556
2018-12-07T00:04:56.519Z,10.0555555556
2018-12-07T00:05:08.900Z,10.0555555556
2018-12-07T00:05:21.265Z,10.0555555556
2018-12-07T00:05:33.640Z,10.0555555556
2018-12-07T00:05:46.038Z,10.1111111111
2018-12-07T00:05:58.410Z,10.0555555556
2018-12-07T00:06:10.789Z,10.1111111111
2018-12-07T00:06:23.300Z,10.1111111111
2018-12-07T00:06:35.670Z,10.0555555556
2018-12-07T00:06:48.182Z,10.1111111111
2018-12-07T00:07:00.546Z,10.1111111111
2018-12-07T00:07:12.919Z,10.1111111111
2018-12-07T00:07:25.315Z,10.1111111111
2018-12-07T00:07:37.686Z,10.1111111111
2018-12-07T00:07:50.065Z,10.1111111111
2018-12-07T00:08:02.435Z,10.1111111111
2018-12-07T00:08:14.800Z,10.1111111111
2018-12-07T00:08:27.185Z,10.1111111111
2018-12-07T00:08:40.730Z,10.1666666667
2018-12-07T00:08:53.332Z,10.1111111111
2018-12-07T00:09:05.733Z,10.1666666667
2018-12-07T00:09:18.226Z,10.1666666667
2018-12-07T00:09:30.607Z,10.1666666667
2018-12-07T00:09:43.009Z,10.1666666667
2018-12-07T00:09:55.391Z,10.1666666667
2018-12-07T00:10:07.784Z,10.1666666667
2018-12-07T00:10:20.170Z,10.1666666667
2018-12-07T00:10:32.583Z,10.1666666667
2018-12-07T00:10:44.965Z,10.1666666667
2018-12-07T00:10:57.364Z,10.1666666667
2018-12-07T00:11:09.772Z,10.1666666667
2018-12-07T00:11:22.179Z,10.1666666667
2018-12-07T00:11:34.555Z,10.1666666667
2018-12-07T00:11:46.942Z,10.1666666667
2018-12-07T00:11:59.297Z,10.1666666667
2018-12-07T00:12:11.698Z,10.1666666667
2018-12-07T00:12:24.081Z,10.1666666667
2018-12-07T00:12:36.475Z,10.1666666667
2018-12-07T00:12:48.856Z,10.1666666667
2018-12-07T00:13:01.254Z,10.1666666667
2018-12-07T00:13:13.723Z,10.1666666667
2018-12-07T00:13:26.245Z,10.2222222222
2018-12-07T00:13:38.630Z,10.1666666667
2018-12-07T00:13:51.012Z,10.1666666667
2018-12-07T00:14:03.383Z,10.1666666667
2018-12-07T00:14:16.774Z,10.2222222222
2018-12-07T00:14:29.165Z,10.2222222222
2018-12-07T00:14:41.536Z,10.2222222222
2018-12-07T00:14:53.953Z,10.2222222222
2018-12-07T00:15:06.337Z,10.2222222222
2018-12-07T00:15:18.735Z,10.2222222222
2018-12-07T00:15:31.148Z,10.2222222222
2018-12-07T00:15:43.533Z,10.2222222222
2018-12-07T00:15:55.908Z,10.2222222222
2018-12-07T00:16:08.281Z,10.2222222222
2018-12-07T00:16:20.654Z,10.2222222222
2018-12-07T00:16:33.012Z,10.2222222222
2018-12-07T00:16:45.377Z,10.2222222222
2018-12-07T00:16:57.799Z,10.2222222222
2018-12-07T00:17:10.163Z,10.2222222222
2018-12-07T00:17:22.545Z,10.2222222222
2018-12-07T00:17:34.942Z,10.2222222222
2018-12-07T00:17:47.321Z,10.2222222222
2018-12-07T00:17:59.680Z,10.2222222222
2018-12-07T00:18:12.043Z,10.2222222222
2018-12-07T00:18:24.595Z,10.2222222222
2018-12-07T00:18:36.967Z,10.2222222222
2018-12-07T00:18:49.332Z,10.2222222222
2018-12-07T00:19:01.702Z,10.2222222222
2018-12-07T00:19:14.083Z,10.2222222222
2018-12-07T00:19:26.732Z,10.2777777778
2018-12-07T00:19:39.176Z,10.2222222222
2018-12-07T00:19:59.157Z,10.2777777778
2018-12-07T00:20:11.547Z,10.2777777778
2018-12-07T00:20:24.010Z,10.2777777778
2018-12-07T00:20:36.461Z,10.2222222222
2018-12-07T00:20:48.910Z,10.2777777778
2018-12-07T00:21:01.274Z,10.2777777778
2018-12-07T00:21:13.640Z,10.2777777778
2018-12-07T00:21:26.024Z,10.2777777778
2018-12-07T00:21:38.393Z,10.2777777778
2018-12-07T00:21:50.840Z,10.2777777778
2018-12-07T00:22:03.229Z,10.2777777778
2018-12-07T00:22:15.587Z,10.2777777778
2018-12-07T00:22:27.974Z,10.2777777778
2018-12-07T00:22:40.436Z,10.2777777778
2018-12-07T00:22:52.818Z,10.2777777778
2018-12-07T00:23:05.293Z,10.2777777778
2018-12-07T00:23:17.678Z,10.2777777778
2018-12-07T00:23:30.030Z,10.2777777778
2018-12-07T00:23:42.394Z,10.2777777778
2018-12-07T00:23:54.752Z,10.2777777778
2018-12-07T00:24:07.114Z,10.3333333333
2018-12-07T00:24:19.504Z,10.2777777778
2018-12-07T00:24:31.881Z,10.2777777778
2018-12-07T00:24:44.232Z,10.2777777778
2018-12-07T00:24:56.598Z,10.3333333333
2018-12-07T00:25:08.968Z,10.2777777778
2018-12-07T00:25:21.386Z,10.3333333333
2018-12-07T00:25:33.833Z,10.2777777778
2018-12-07T00:25:46.826Z,10.2777777778
2018-12-07T00:25:59.325Z,10.2777777778
2018-12-07T00:26:11.944Z,10.3333333333
2018-12-07T00:26:24.317Z,10.3333333333
2018-12-07T00:26:36.806Z,10.2777777778
2018-12-07T00:26:49.174Z,10.2777777778
2018-12-07T00:27:01.554Z,10.3333333333
2018-12-07T00:27:13.926Z,10.3333333333
2018-12-07T00:27:26.429Z,10.2777777778
2018-12-07T00:27:38.781Z,10.2777777778
2018-12-07T00:27:51.150Z,10.3333333333
2018-12-07T00:28:03.508Z,10.3333333333
2018-12-07T00:28:15.868Z,10.2777777778
2018-12-07T00:28:28.240Z,10.2777777778
2018-12-07T00:28:40.709Z,10.3333333333
2018-12-07T00:28:53.171Z,10.3333333333
2018-12-07T00:29:05.530Z,10.3333333333
2018-12-07T00:29:17.907Z,10.3333333333
2018-12-07T00:29:30.283Z,10.3333333333
2018-12-07T00:29:42.665Z,10.3333333333
2018-12-07T00:29:55.032Z,10.2777777778
2018-12-07T00:30:07.413Z,10.3333333333
2018-12-07T00:30:20.018Z,10.3333333333
2018-12-07T00:30:32.663Z,10.3333333333
2018-12-07T00:30:45.076Z,10.3333333333
2018-12-07T00:30:57.446Z,10.3333333333
2018-12-07T00:31:09.807Z,10.3333333333
2018-12-07T00:31:22.185Z,10.3333333333
2018-12-07T00:31:35.734Z,10.3333333333
2018-12-07T00:31:48.139Z,10.3333333333
2018-12-07T00:32:00.532Z,10.3333333333
2018-12-07T00:32:12.905Z,10.3333333333
2018-12-07T00:32:25.409Z,10.3333333333
2018-12-07T00:32:37.854Z,10.3333333333
2018-12-07T00:32:50.260Z,10.3333333333
2018-12-07T00:33:02.736Z,10.3333333333
2018-12-07T00:33:15.097Z,10.3333333333
2018-12-07T00:33:27.484Z,10.3333333333
2018-12-07T00:33:39.849Z,10.3333333333
2018-12-07T00:33:52.294Z,10.3333333333
2018-12-07T00:34:04.654Z,10.3333333333
2018-12-07T00:34:17.010Z,10.3333333333
2018-12-07T00:34:29.370Z,10.3333333333
2018-12-07T00:34:41.946Z,10.3333333333
2018-12-07T00:34:54.319Z,10.3333333333
2018-12-07T00:35:06.709Z,10.3333333333
2018-12-07T00:35:19.102Z,10.3333333333
2018-12-07T00:35:31.486Z,10.3333333333
2018-12-07T00:35:43.859Z,10.3333333333
2018-12-07T00:35:56.210Z,10.3333333333
2018-12-07T00:36:08.568Z,10.3333333333
2018-12-07T00:36:20.958Z,10.3333333333
2018-12-07T00:36:33.321Z,10.3333333333
2018-12-07T00:36:45.781Z,10.3333333333
2018-12-07T00:36:58.137Z,10.3333333333
2018-12-07T00:37:10.589Z,10.3333333333
2018-12-07T00:37:22.978Z,10.3333333333
2018-12-07T00:37:35.462Z,10.3333333333
2018-12-07T00:37:47.852Z,10.3888888889
2018-12-07T00:38:00.229Z,10.3333333333
2018-12-07T00:38:12.592Z,10.3333333333
2018-12-07T00:38:24.949Z,10.3888888889
2018-12-07T00:38:37.363Z,10.3888888889
2018-12-07T00:38:49.729Z,10.3333333333
2018-12-07T00:39:02.126Z,10.3888888889
2018-12-07T00:39:14.500Z,10.3888888889
2018-12-07T00:39:26.875Z,10.3888888889
2018-12-07T00:39:39.261Z,10.3888888889
2018-12-07T00:39:51.616Z,10.3333333333
2018-12-07T00:40:03.974Z,10.3888888889
2018-12-07T00:40:16.334Z,10.3888888889
2018-12-07T00:40:28.718Z,10.3888888889
2018-12-07T00:40:41.081Z,10.3888888889
2018-12-07T00:40:53.441Z,10.3888888889
2018-12-07T00:41:05.868Z,10.3888888889
2018-12-07T00:41:18.474Z,10.3333333333
2018-12-07T00:41:30.827Z,10.3333333333
2018-12-07T00:41:43.187Z,10.3888888889
2018-12-07T00:41:55.735Z,10.3888888889
2018-12-07T00:42:08.097Z,10.3888888889
2018-12-07T00:42:20.580Z,10.3888888889
2018-12-07T00:42:32.946Z,10.3888888889
2018-12-07T00:42:45.316Z,10.3888888889
2018-12-07T00:42:57.678Z,10.3888888889
2018-12-07T00:43:10.080Z,10.3888888889
2018-12-07T00:43:22.431Z,10.3888888889
2018-12-07T00:43:34.785Z,10.3888888889
2018-12-07T00:43:47.129Z,10.4444444444
2018-12-07T00:43:59.490Z,10.3888888889
2018-12-07T00:44:11.858Z,10.3888888889
2018-12-07T00:44:24.217Z,10.4444444444
2018-12-07T00:44:36.589Z,10.3888888889
2018-12-07T00:44:50.715Z,10.3888888889
2018-12-07T00:45:03.075Z,10.4444444444
2018-12-07T00:45:15.445Z,10.4444444444
2018-12-07T00:45:27.797Z,10.3888888889
2018-12-07T00:45:40.178Z,10.4444444444
2018-12-07T00:45:52.550Z,10.4444444444
2018-12-07T00:46:04.926Z,10.4444444444
2018-12-07T00:46:17.420Z,10.3888888889
2018-12-07T00:46:29.804Z,10.4444444444
2018-12-07T00:46:42.276Z,10.4444444444
2018-12-07T00:46:54.648Z,10.4444444444
2018-12-07T00:47:07.002Z,10.4444444444
2018-12-07T00:47:19.437Z,10.4444444444
2018-12-07T00:47:31.873Z,10.4444444444
2018-12-07T00:47:44.239Z,10.4444444444
2018-12-07T00:47:56.699Z,10.4444444444
2018-12-07T00:48:09.080Z,10.4444444444
2018-12-07T00:48:21.441Z,10.4444444444
2018-12-07T00:48:34.113Z,10.4444444444
2018-12-07T00:48:46.466Z,10.4444444444
2018-12-07T00:48:58.853Z,10.4444444444
2018-12-07T00:49:11.194Z,10.4444444444
2018-12-07T00:49:23.552Z,10.4444444444
2018-12-07T00:49:35.907Z,10.4444444444
2018-12-07T00:49:48.275Z,10.4444444444
2018-12-07T00:50:00.871Z,10.4444444444
2018-12-07T00:50:13.252Z,10.4444444444
2018-12-07T00:50:25.625Z,10.4444444444
2018-12-07T00:50:37.991Z,10.4444444444
2018-12-07T00:50:50.563Z,10.5
2018-12-07T00:51:02.919Z,10.4444444444
2018-12-07T00:51:15.277Z,10.5
2018-12-07T00:51:27.666Z,10.5
2018-12-07T00:51:40.033Z,10.4444444444
2018-12-07T00:51:52.561Z,10.4444444444
2018-12-07T00:52:04.922Z,10.5
2018-12-07T00:52:17.294Z,10.4444444444
2018-12-07T00:52:29.649Z,10.4444444444
2018-12-07T00:52:42.068Z,10.5
2018-12-07T00:52:54.423Z,10.5
2018-12-07T00:53:06.826Z,10.4444444444
2018-12-07T00:53:19.200Z,10.4444444444
2018-12-07T00:53:31.561Z,10.4444444444
2018-12-07T00:53:43.937Z,10.5
2018-12-07T00:53:56.307Z,10.5
2018-12-07T00:54:08.696Z,10.5
2018-12-07T00:54:21.085Z,10.5
2018-12-07T00:54:33.452Z,10.5
2018-12-07T00:54:46.005Z,10.5
2018-12-07T00:54:58.371Z,10.5
2018-12-07T00:55:10.831Z,10.5
2018-12-07T00:55:23.188Z,10.5
2018-12-07T00:55:35.645Z,10.5
2018-12-07T00:55:48.126Z,10.5555555556
2018-12-07T00:56:00.560Z,10.5
2018-12-07T00:56:12.942Z,10.5
2018-12-07T00:56:25.310Z,10.5
2018-12-07T00:56:37.668Z,10.5
2018-12-07T00:56:50.081Z,10.5
2018-12-07T00:57:02.450Z,10.5
2018-12-07T00:57:14.821Z,10.5
2018-12-07T00:57:27.177Z,10.5
2018-12-07T00:57:39.546Z,10.5
2018-12-07T00:57:51.903Z,10.5
2018-12-07T00:58:04.256Z,10.5
2018-12-07T00:58:16.776Z,10.5
2018-12-07T00:58:29.136Z,10.5
2018-12-07T00:58:41.500Z,10.5
2018-12-07T00:58:53.898Z,10.5
2018-12-07T00:59:06.356Z,10.5
2018-12-07T00:59:18.713Z,10.5
2018-12-07T00:59:31.075Z,10.5
2018-12-07T00:59:43.451Z,10.5
2018-12-07T00:59:56.003Z,10.5
2018-12-07T01:00:08.377Z,10.5
2018-12-07T01:00:20.764Z,10.5
2018-12-07T01:00:33.140Z,10.5
2018-12-07T01:00:45.529Z,10.5
2018-12-07T01:00:57.918Z,10.5
2018-12-07T01:01:10.287Z,10.5
2018-12-07T01:01:22.847Z,10.5
2018-12-07T01:01:35.221Z,10.5
2018-12-07T01:01:47.597Z,10.5
2018-12-07T01:02:00.098Z,10.5555555556
2018-12-07T01:02:12.528Z,10.5
2018-12-07T01:02:24.883Z,10.5
2018-12-07T01:02:37.249Z,10.5
2018-12-07T01:02:49.623Z,10.5
2018-12-07T01:03:01.998Z,10.5555555556
2018-12-07T01:03:14.645Z,10.5
2018-12-07T01:03:27.001Z,10.5
2018-12-07T01:03:39.354Z,10.5
2018-12-07T01:03:51.723Z,10.5
2018-12-07T01:04:04.095Z,10.5555555556
2018-12-07T01:04:16.439Z,10.5555555556
2018-12-07T01:04:28.817Z,10.5555555556
2018-12-07T01:04:41.162Z,10.5555555556
2018-12-07T01:04:53.530Z,10.5555555556
2018-12-07T01:05:05.955Z,10.5555555556
2018-12-07T01:05:18.486Z,10.5555555556
2018-12-07T01:05:30.844Z,10.5555555556
2018-12-07T01:05:43.264Z,10.5555555556
2018-12-07T01:05:55.616Z,10.5555555556
2018-12-07T01:06:07.976Z,10.5555555556
2018-12-07T01:06:20.340Z,10.5555555556
2018-12-07T01:06:32.745Z,10.5555555556
2018-12-07T01:06:45.108Z,10.5555555556
2018-12-07T01:06:57.491Z,10.5555555556
2018-12-07T01:07:09.851Z,10.5555555556
2018-12-07T01:07:22.260Z,10.5555555556
2018-12-07T01:07:34.627Z,10.5555555556
2018-12-07T01:07:47.040Z,10.5555555556
2018-12-07T01:07:59.394Z,10.5555555556
2018-12-07T01:08:11.758Z,10.5555555556
2018-12-07T01:08:24.154Z,10.5555555556
2018-12-07T01:08:36.549Z,10.5555555556
2018-12-07T01:08:48.940Z,10.5555555556
2018-12-07T01:09:01.295Z,10.5555555556
2018-12-07T01:09:13.767Z,10.5555555556
2018-12-07T01:09:26.127Z,10.6111111111
2018-12-07T01:09:38.482Z,10.5555555556
2018-12-07T01:09:50.909Z,10.5555555556
2018-12-07T01:10:03.294Z,10.5555555556
2018-12-07T01:10:15.660Z,10.5555555556
2018-12-07T01:10:28.011Z,10.5555555556
2018-12-07T01:10:40.386Z,10.5555555556
2018-12-07T01:10:52.760Z,10.5555555556
2018-12-07T01:11:05.112Z,10.6111111111
2018-12-07T01:11:17.483Z,10.6111111111
2018-12-07T01:11:30.054Z,10.6111111111
2018-12-07T01:11:42.418Z,10.6111111111
2018-12-07T01:11:54.776Z,10.5555555556
2018-12-07T01:12:07.154Z,10.6111111111
2018-12-07T01:12:19.540Z,10.5555555556
2018-12-07T01:12:31.907Z,10.6111111111
2018-12-07T01:12:44.371Z,10.6111111111
2018-12-07T01:12:56.847Z,10.6111111111
2018-12-07T01:13:09.222Z,10.6111111111
2018-12-07T01:13:21.573Z,10.6111111111
2018-12-07T01:13:33.935Z,10.6111111111
2018-12-07T01:13:46.296Z,10.6111111111
2018-12-07T01:13:58.802Z,10.6111111111
2018-12-07T01:14:11.207Z,10.6111111111
2018-12-07T01:14:23.588Z,10.6111111111
2018-12-07T01:14:35.954Z,10.6111111111
2018-12-07T01:14:48.314Z,10.6111111111
2018-12-07T01:15:00.708Z,10.6111111111
2018-12-07T01:15:13.078Z,10.6111111111
2018-12-07T01:15:25.452Z,10.6111111111
2018-12-07T01:15:37.821Z,10.6111111111
2018-12-07T01:15:50.192Z,10.6111111111
2018-12-07T01:16:02.672Z,10.6111111111
2018-12-07T01:16:15.034Z,10.6111111111
2018-12-07T01:16:27.394Z,10.6111111111
2018-12-07T01:16:39.780Z,10.6111111111
2018-12-07T01:16:52.175Z,10.6111111111
2018-12-07T01:17:04.538Z,10.6111111111
2018-12-07T01:17:16.907Z,10.6111111111
2018-12-07T01:17:29.260Z,10.6666666667
2018-12-07T01:17:41.623Z,10.6111111111
2018-12-07T01:17:53.992Z,10.6111111111
2018-12-07T01:18:06.359Z,10.6111111111
2018-12-07T01:18:18.758Z,10.6111111111
2018-12-07T01:18:31.131Z,10.6666666667
2018-12-07T01:18:43.484Z,10.6111111111
2018-12-07T01:18:55.858Z,10.6111111111
2018-12-07T01:19:08.213Z,10.6111111111
2018-12-07T01:19:20.584Z,10.6111111111
2018-12-07T01:19:33.102Z,10.6666666667
2018-12-07T01:19:45.448Z,10.6111111111
2018-12-07T01:19:57.807Z,10.6111111111
2018-12-07T01:20:10.152Z,10.6111111111
2018-12-07T01:20:22.597Z,10.6111111111
2018-12-07T01:20:35.029Z,10.6666666667
2018-12-07T01:20:47.413Z,10.6111111111
2018-12-07T01:20:59.767Z,10.6111111111
2018-12-07T01:21:12.139Z,10.6111111111
2018-12-07T01:21:24.506Z,10.6666666667
2018-12-07T01:21:36.866Z,10.6666666667
2018-12-07T01:21:49.227Z,10.6666666667
2018-12-07T01:22:01.627Z,10.6666666667
2018-12-07T01:22:13.980Z,10.6666666667
2018-12-07T01:22:26.348Z,10.6666666667
2018-12-07T01:22:38.706Z,10.6666666667
2018-12-07T01:22:51.065Z,10.6666666667
2018-12-07T01:23:03.432Z,10.6666666667
2018-12-07T01:23:15.798Z,10.6111111111
2018-12-07T01:23:28.172Z,10.6666666667
2018-12-07T01:23:40.618Z,10.6666666667
2018-12-07T01:23:52.970Z,10.6666666667
2018-12-07T01:24:05.329Z,10.6666666667
2018-12-07T01:24:17.682Z,10.6666666667
2018-12-07T01:24:30.043Z,10.6666666667
2018-12-07T01:24:42.385Z,10.6666666667
2018-12-07T01:24:54.774Z,10.6666666667
2018-12-07T01:25:07.125Z,10.6666666667
2018-12-07T01:25:19.501Z,10.6666666667
2018-12-07T01:25:31.866Z,10.6666666667
2018-12-07T01:25:44.324Z,10.6666666667
2018-12-07T01:25:56.863Z,10.6666666667
2018-12-07T01:26:09.236Z,10.6666666667
2018-12-07T01:26:21.778Z,10.6666666667
2018-12-07T01:26:34.274Z,10.6666666667
2018-12-07T01:26:46.635Z,10.7222222222
2018-12-07T01:26:58.994Z,10.6666666667
2018-12-07T01:27:11.360Z,10.6666666667
2018-12-07T01:27:23.876Z,10.6666666667
2018-12-07T01:27:36.249Z,10.6666666667
2018-12-07T01:27:48.638Z,10.6666666667
2018-12-07T01:28:01.003Z,10.6666666667
2018-12-07T01:28:13.358Z,10.6666666667
2018-12-07T01:28:25.715Z,10.6666666667
2018-12-07T01:28:38.069Z,10.6666666667
2018-12-07T01:28:50.435Z,10.7222222222
2018-12-07T01:29:02.790Z,10.7222222222
2018-12-07T01:29:15.158Z,10.6666666667
2018-12-07T01:29:27.520Z,10.6666666667
2018-12-07T01:29:39.888Z,10.7222222222
2018-12-07T01:29:52.267Z,10.7222222222
2018-12-07T01:30:04.659Z,10.7222222222
2018-12-07T01:30:17.031Z,10.6666666667
2018-12-07T01:30:29.560Z,10.6666666667
2018-12-07T01:30:41.989Z,10.6666666667
2018-12-07T01:30:54.365Z,10.6666666667
2018-12-07T01:31:06.738Z,10.7222222222
2018-12-07T01:31:19.112Z,10.7222222222
2018-12-07T01:31:31.505Z,10.6666666667
2018-12-07T01:31:43.897Z,10.7222222222
2018-12-07T01:31:56.266Z,10.7222222222
2018-12-07T01:32:08.652Z,10.6666666667
2018-12-07T01:32:21.105Z,10.7222222222
2018-12-07T01:32:33.483Z,10.6666666667
2018-12-07T01:32:45.847Z,10.7222222222
2018-12-07T01:32:58.215Z,10.7222222222
2018-12-07T01:33:10.680Z,10.7222222222
2018-12-07T01:33:23.034Z,10.7222222222
2018-12-07T01:33:35.403Z,10.7222222222
2018-12-07T01:33:47.761Z,10.7222222222
2018-12-07T01:34:00.226Z,10.7222222222
2018-12-07T01:34:12.618Z,10.7222222222
2018-12-07T01:34:24.983Z,10.7222222222
2018-12-07T01:34:37.452Z,10.7222222222
2018-12-07T01:34:49.927Z,10.7222222222
2018-12-07T01:35:02.297Z,10.7222222222
2018-12-07T01:35:14.668Z,10.7222222222
2018-12-07T01:35:27.027Z,10.6666666667
2018-12-07T01:35:39.398Z,10.7222222222
2018-12-07T01:35:51.781Z,10.7222222222
2018-12-07T01:36:04.152Z,10.7222222222
2018-12-07T01:36:16.537Z,10.7222222222
2018-12-07T01:36:28.898Z,10.7222222222
2018-12-07T01:36:41.265Z,10.7222222222
2018-12-07T01:36:53.925Z,10.7222222222
2018-12-07T01:37:06.275Z,10.7222222222
2018-12-07T01:37:18.659Z,10.7222222222
2018-12-07T01:37:31.124Z,10.7222222222
2018-12-07T01:37:43.487Z,10.7222222222
2018-12-07T01:37:55.865Z,10.7222222222
2018-12-07T01:38:08.242Z,10.7777777778
2018-12-07T01:38:20.643Z,10.7222222222
2018-12-07T01:38:33.012Z,10.7222222222
2018-12-07T01:38:45.482Z,10.7222222222
2018-12-07T01:38:57.851Z,10.7222222222
2018-12-07T01:39:10.243Z,10.7222222222
2018-12-07T01:39:22.605Z,10.7222222222
2018-12-07T01:39:34.983Z,10.7222222222
2018-12-07T01:39:47.349Z,10.7222222222
2018-12-07T01:39:59.701Z,10.7222222222
2018-12-07T01:40:12.076Z,10.7222222222
2018-12-07T01:40:24.456Z,10.7222222222
2018-12-07T01:40:36.834Z,10.7222222222
2018-12-07T01:40:49.219Z,10.7777777778
2018-12-07T01:41:01.632Z,10.7222222222
2018-12-07T01:41:14.128Z,10.7777777778
2018-12-07T01:41:26.485Z,10.7222222222
2018-12-07T01:41:38.864Z,10.7222222222
2018-12-07T01:41:51.214Z,10.7222222222
2018-12-07T01:42:03.719Z,10.7777777778
2018-12-07T01:42:16.066Z,10.7777777778
2018-12-07T01:42:28.425Z,10.7222222222
2018-12-07T01:42:40.798Z,10.7222222222
2018-12-07T01:42:53.161Z,10.7777777778
2018-12-07T01:43:05.522Z,10.7222222222
2018-12-07T01:43:17.907Z,10.7777777778
2018-12-07T01:43:30.266Z,10.7777777778
2018-12-07T01:43:42.619Z,10.7777777778
2018-12-07T01:43:55.045Z,10.7777777778
2018-12-07T01:44:07.412Z,10.7222222222
2018-12-07T01:44:19.797Z,10.7777777778
2018-12-07T01:44:32.164Z,10.7777777778
2018-12-07T01:44:44.539Z,10.7777777778
2018-12-07T01:44:56.902Z,10.7777777778
2018-12-07T01:45:09.263Z,10.7777777778
2018-12-07T01:45:21.639Z,10.7222222222
2018-12-07T01:45:34.183Z,10.7777777778
2018-12-07T01:45:46.581Z,10.7777777778
2018-12-07T01:45:58.921Z,10.7777777778
2018-12-07T01:46:11.311Z,10.7777777778
2018-12-07T01:46:23.663Z,10.7777777778
2018-12-07T01:46:36.036Z,10.7777777778
2018-12-07T01:46:48.398Z,10.7777777778
2018-12-07T01:47:00.757Z,10.7222222222
2018-12-07T01:47:13.196Z,10.7777777778
2018-12-07T01:47:25.567Z,10.7777777778
2018-12-07T01:47:37.925Z,10.7777777778
2018-12-07T01:47:50.303Z,10.7777777778
2018-12-07T01:48:02.683Z,10.7777777778
2018-12-07T01:48:15.040Z,10.7777777778
2018-12-07T01:48:27.395Z,10.7777777778
2018-12-07T01:48:40.016Z,10.7777777778
2018-12-07T01:48:52.450Z,10.7777777778
2018-12-07T01:49:04.816Z,10.7777777778
2018-12-07T01:49:18.438Z,10.7777777778
2018-12-07T01:49:30.912Z,10.7777777778
2018-12-07T01:49:43.263Z,10.7777777778
2018-12-07T01:49:55.637Z,10.7777777778
2018-12-07T01:50:08.165Z,10.7777777778
2018-12-07T01:50:20.569Z,10.7777777778
2018-12-07T01:50:32.930Z,10.7777777778
2018-12-07T01:50:45.481Z,10.7777777778
2018-12-07T01:50:57.843Z,10.7777777778
2018-12-07T01:51:10.266Z,10.7777777778
2018-12-07T01:51:22.633Z,10.8333333333
2018-12-07T01:51:34.994Z,10.7777777778
2018-12-07T01:51:47.511Z,10.7777777778
2018-12-07T01:51:59.878Z,10.7777777778
2018-12-07T01:52:12.256Z,10.7777777778
2018-12-07T01:52:24.621Z,10.8333333333
2018-12-07T01:52:36.986Z,10.8333333333
2018-12-07T01:52:49.336Z,10.7777777778
2018-12-07T01:53:01.704Z,10.7777777778
2018-12-07T01:53:14.059Z,10.7777777778
2018-12-07T01:53:26.431Z,10.7777777778
2018-12-07T01:53:38.780Z,10.8333333333
2018-12-07T01:53:51.165Z,10.7777777778
2018-12-07T01:54:03.527Z,10.7777777778
2018-12-07T01:54:15.902Z,10.8333333333
2018-12-07T01:54:28.322Z,10.7777777778
2018-12-07T01:54:40.673Z,10.8333333333
2018-12-07T01:54:53.116Z,10.7777777778
2018-12-07T01:55:05.537Z,10.8333333333
2018-12-07T01:55:17.901Z,10.7777777778
2018-12-07T01:55:30.276Z,10.7777777778
2018-12-07T01:55:42.618Z,10.7777777778
2018-12-07T01:55:54.985Z,10.8333333333
2018-12-07T01:56:07.353Z,10.8333333333
2018-12-07T01:56:19.717Z,10.8333333333
2018-12-07T01:56:32.084Z,10.7777777778
2018-12-07T01:56:44.473Z,10.8333333333
2018-12-07T01:56:56.830Z,10.8333333333
2018-12-07T01:57:09.217Z,10.7777777778
2018-12-07T01:57:21.606Z,10.8333333333
2018-12-07T01:57:34.040Z,10.8333333333
2018-12-07T01:57:46.402Z,10.8333333333
2018-12-07T01:57:58.778Z,10.7777777778
2018-12-07T01:58:11.137Z,10.8333333333
2018-12-07T01:58:23.581Z,10.8333333333
2018-12-07T01:58:35.941Z,10.7777777778
2018-12-07T01:58:48.311Z,10.8333333333
2018-12-07T01:59:00.661Z,10.8333333333
2018-12-07T01:59:13.010Z,10.8333333333
2018-12-07T01:59:25.371Z,10.8333333333
2018-12-07T01:59:37.748Z,10.8333333333
2018-12-07T01:59:50.117Z,10.8333333333
2018-12-07T02:00:02.481Z,10.8333333333
2018-12-07T02:00:14.909Z,10.8333333333
2018-12-07T02:00:27.303Z,10.8333333333
2018-12-07T02:00:39.699Z,10.8333333333
2018-12-07T02:00:52.100Z,10.8333333333
2018-12-07T02:01:04.502Z,10.7777777778
2018-12-07T02:01:16.906Z,10.8333333333
2018-12-07T02:01:29.570Z,10.7777777778
2018-12-07T02:01:41.966Z,10.7777777778
2018-12-07T02:01:54.398Z,10.8333333333
2018-12-07T02:02:06.855Z,10.8333333333
2018-12-07T02:02:19.212Z,10.8333333333
2018-12-07T02:02:31.577Z,10.8333333333
2018-12-07T02:02:43.963Z,10.8333333333
2018-12-07T02:02:56.331Z,10.8333333333
2018-12-07T02:03:08.689Z,10.7777777778
2018-12-07T02:03:21.357Z,10.7777777778
2018-12-07T02:03:33.731Z,10.8333333333
2018-12-07T02:03:46.082Z,10.8333333333
2018-12-07T02:03:58.440Z,10.8333333333
2018-12-07T02:04:10.872Z,10.8333333333
2018-12-07T02:04:23.220Z,10.8333333333
2018-12-07T02:04:35.574Z,10.8333333333
2018-12-07T02:04:47.944Z,10.7777777778
2018-12-07T02:05:00.304Z,10.7777777778
2018-12-07T02:05:12.673Z,10.7777777778
2018-12-07T02:05:25.035Z,10.7777777778
2018-12-07T02:05:37.402Z,10.8333333333
2018-12-07T02:05:49.769Z,10.7777777778
2018-12-07T02:06:02.147Z,10.7777777778
2018-12-07T02:06:14.524Z,10.7777777778
2018-12-07T02:06:26.923Z,10.7777777778
2018-12-07T02:06:39.364Z,10.7777777778
2018-12-07T02:06:51.720Z,10.7777777778
2018-12-07T02:07:04.084Z,10.7777777778
2018-12-07T02:07:16.440Z,10.7777777778
2018-12-07T02:07:28.858Z,10.7777777778
2018-12-07T02:07:41.258Z,10.7222222222
2018-12-07T02:07:53.630Z,10.7777777778
2018-12-07T02:08:06.010Z,10.7222222222
2018-12-07T02:08:18.369Z,10.7777777778
2018-12-07T02:08:30.746Z,10.7777777778
2018-12-07T02:08:43.166Z,10.7777777778
2018-12-07T02:08:55.515Z,10.7777777778
2018-12-07T02:09:07.894Z,10.7222222222
2018-12-07T02:09:20.598Z,10.7222222222
2018-12-07T02:09:32.978Z,10.7777777778
2018-12-07T02:09:45.362Z,10.7777777778
2018-12-07T02:09:57.818Z,10.7222222222